Time;durP1;ratioP1;P1;durP2;ratioP2;P2;SDS_P1;SDS_P2;PMS_P1;PMS_P2;Temp;Humidity;BMP_temperature;BMP_pressure;BME280_temperature;BME280_humidity;BME280_pressure;Samples;Min_cycle;Max_cycle;Signal;HPM_P1;HPM_P2
2023/10/13 00:02:05;;;;;;;;;;;19.40;79.10;;;;;;5061054;28;19928;-76
2023/10/13 00:04:32;;;;;;;;;;;19.40;78.90;;;;;;5062493;28;19932;-76
2023/10/13 00:06:59;;;;;;;;;;;19.40;78.80;;;;;;5064786;28;19929;-75
2023/10/13 00:09:32;;;;;;;;;;;19.40;78.50;;;;;;5061252;28;19928;-76
2023/10/13 00:12:00;;;;;;;;;;;19.40;78.30;;;;;;5061825;28;19928;-75
2023/10/13 00:14:33;;;;;;;;;;;19.40;78.00;;;;;;5063642;28;19939;-75
2023/10/13 00:17:04;;;;;;;;;;;19.40;77.60;;;;;;5060370;28;20023;-76
2023/10/13 00:19:37;;;;;;;;;;;19.40;77.40;;;;;;5062560;28;19938;-75
2023/10/13 00:22:08;;;;;;;;;;;19.40;77.00;;;;;;5061856;28;19940;-76
2023/10/13 00:24:42;;;;;;;;;;;19.40;76.80;;;;;;5064931;28;20074;-76
2023/10/13 00:27:27;;;;;;;;;;;19.40;76.40;;;;;;5065970;28;19932;-76
2023/10/13 00:30:16;;;;;;;;;;;19.40;75.60;;;;;;5066344;28;20340;-77
2023/10/13 00:32:44;;;;;;;;;;;19.40;75.20;;;;;;5059307;28;19928;-74
2023/10/13 00:35:12;;;;;;;;;;;19.40;74.80;;;;;;5064770;28;20506;-74
2023/10/13 00:37:44;;;;;;;;;;;19.40;74.80;;;;;;5063636;28;19928;-76
2023/10/13 00:40:24;;;;;;;;;;;19.40;74.70;;;;;;5062482;28;19928;-77
2023/10/13 00:42:54;;;;;;;;;;;19.40;74.40;;;;;;5059938;28;20348;-76
2023/10/13 00:45:20;;;;;;;;;;;19.40;74.20;;;;;;5063592;28;19932;-76
2023/10/13 00:47:49;;;;;;;;;;;19.40;73.90;;;;;;5063836;28;19978;-75
2023/10/13 00:50:17;;;;;;;;;;;19.40;73.90;;;;;;5061419;28;20853;-75
2023/10/13 00:52:46;;;;;;;;;;;19.40;73.80;;;;;;5065964;28;20360;-76
2023/10/13 00:55:13;;;;;;;;;;;19.40;73.20;;;;;;5063420;28;19928;-75
2023/10/13 00:57:40;;;;;;;;;;;19.40;72.90;;;;;;5060839;28;19952;-75
2023/10/13 01:00:17;;;;;;;;;;;19.40;73.00;;;;;;5060517;28;19932;-74
2023/10/13 01:02:45;;;;;;;;;;;19.40;72.90;;;;;;5061525;28;19935;-77
2023/10/13 01:05:11;;;;;;;;;;;19.40;72.80;;;;;;5064945;28;19932;-75
2023/10/13 01:07:38;;;;;;;;;;;19.40;72.70;;;;;;5062399;28;19924;-75
2023/10/13 01:10:04;;;;;;;;;;;19.40;72.60;;;;;;5061732;28;20003;-77
2023/10/13 01:12:30;;;;;;;;;;;19.40;72.40;;;;;;5063905;28;20421;-76
2023/10/13 01:14:59;;;;;;;;;;;19.40;72.70;;;;;;5062958;28;19928;-76
2023/10/13 01:17:31;;;;;;;;;;;19.40;71.60;;;;;;5058755;28;19935;-76
2023/10/13 01:19:58;;;;;;;;;;;19.40;71.60;;;;;;5063364;28;19956;-76
2023/10/13 01:22:25;;;;;;;;;;;19.50;71.80;;;;;;5058816;28;20007;-76
2023/10/13 01:24:55;;;;;;;;;;;19.40;71.80;;;;;;5059111;28;20461;-75
2023/10/13 01:27:24;;;;;;;;;;;19.40;71.70;;;;;;5056720;28;19939;-78
2023/10/13 01:29:50;;;;;;;;;;;19.40;71.60;;;;;;5063657;28;19982;-76
2023/10/13 01:32:17;;;;;;;;;;;19.40;71.50;;;;;;5060471;28;19928;-75
2023/10/13 01:34:46;;;;;;;;;;;19.40;71.50;;;;;;5059385;28;19943;-78
2023/10/13 01:37:12;;;;;;;;;;;19.40;71.60;;;;;;5058849;28;20298;-75
2023/10/13 01:39:38;;;;;;;;;;;19.40;71.50;;;;;;5061005;28;19932;-76
2023/10/13 01:42:06;;;;;;;;;;;19.40;71.60;;;;;;5060486;28;19924;-76
2023/10/13 01:44:32;;;;;;;;;;;19.40;71.70;;;;;;5061643;28;19936;-77
2023/10/13 01:47:05;;;;;;;;;;;19.40;71.50;;;;;;5062798;28;19924;-76
2023/10/13 01:49:41;;;;;;;;;;;19.40;71.40;;;;;;5061449;28;19929;-76
2023/10/13 01:52:09;;;;;;;;;;;19.40;71.30;;;;;;5064166;28;20398;-76
2023/10/13 01:54:35;;;;;;;;;;;19.40;71.10;;;;;;5062509;28;19947;-75
2023/10/13 01:57:03;;;;;;;;;;;19.40;71.20;;;;;;5059131;28;19936;-76
2023/10/13 01:59:31;;;;;;;;;;;19.30;71.00;;;;;;5062273;28;19935;-75
2023/10/13 02:02:00;;;;;;;;;;;19.40;70.60;;;;;;5062468;28;19959;-75
2023/10/13 02:04:28;;;;;;;;;;;19.40;70.70;;;;;;5059977;28;20648;-76
2023/10/13 02:06:55;;;;;;;;;;;19.40;70.70;;;;;;5064107;28;19932;-74
2023/10/13 02:09:26;;;;;;;;;;;19.30;70.80;;;;;;5061217;28;20282;-76
2023/10/13 02:11:54;;;;;;;;;;;19.40;70.70;;;;;;5064746;28;20019;-77
2023/10/13 02:14:22;;;;;;;;;;;19.30;70.60;;;;;;5067215;28;20023;-75
2023/10/13 02:16:50;;;;;;;;;;;19.30;70.50;;;;;;5063181;28;19928;-75
2023/10/13 02:19:19;;;;;;;;;;;19.30;70.40;;;;;;5064420;28;19933;-77
2023/10/13 02:21:45;;;;;;;;;;;19.30;70.50;;;;;;5065005;28;19934;-74
2023/10/13 02:24:13;;;;;;;;;;;19.30;70.20;;;;;;5066724;28;19924;-76
2023/10/13 02:26:41;;;;;;;;;;;19.30;70.40;;;;;;5067963;28;19978;-76
2023/10/13 02:29:08;;;;;;;;;;;19.30;71.00;;;;;;5065017;28;19928;-75
2023/10/13 02:31:34;;;;;;;;;;;19.30;70.20;;;;;;5066841;28;19967;-75
2023/10/13 02:34:06;;;;;;;;;;;19.30;70.30;;;;;;5064452;28;19925;-75
2023/10/13 02:36:36;;;;;;;;;;;19.30;70.40;;;;;;5065625;28;20093;-75
2023/10/13 02:39:07;;;;;;;;;;;19.30;70.80;;;;;;5065581;28;19928;-75
2023/10/13 02:41:33;;;;;;;;;;;19.30;70.10;;;;;;5066612;28;19932;-75
2023/10/13 02:44:00;;;;;;;;;;;19.30;70.30;;;;;;5066574;28;20357;-75
2023/10/13 02:46:29;;;;;;;;;;;19.30;70.20;;;;;;5065453;28;19936;-76
2023/10/13 02:48:57;;;;;;;;;;;19.30;70.00;;;;;;5059764;28;19951;-76
2023/10/13 02:51:31;;;;;;;;;;;19.20;70.00;;;;;;5065683;28;20379;-76
2023/10/13 02:54:02;;;;;;;;;;;19.20;69.80;;;;;;5067857;28;19968;-76
2023/10/13 02:56:28;;;;;;;;;;;19.20;70.00;;;;;;5066429;28;19928;-76
2023/10/13 02:58:56;;;;;;;;;;;19.20;69.60;;;;;;5066023;28;19924;-75
2023/10/13 03:01:27;;;;;;;;;;;19.20;69.50;;;;;;5059626;28;19933;-75
2023/10/13 03:03:55;;;;;;;;;;;19.20;69.50;;;;;;5065226;28;19928;-75
2023/10/13 03:06:24;;;;;;;;;;;19.20;69.70;;;;;;5063603;28;19935;-75
2023/10/13 03:08:51;;;;;;;;;;;19.20;70.60;;;;;;5064372;28;19954;-77
2023/10/13 03:11:23;;;;;;;;;;;19.20;70.00;;;;;;5062960;28;19928;-75
2023/10/13 03:13:51;;;;;;;;;;;19.20;69.90;;;;;;5063757;28;19932;-75
2023/10/13 03:16:19;;;;;;;;;;;19.20;69.40;;;;;;5057440;28;19928;-76
2023/10/13 03:18:53;;;;;;;;;;;19.20;69.30;;;;;;5060285;28;19928;-75
2023/10/13 03:21:28;;;;;;;;;;;19.10;69.10;;;;;;5061793;28;20012;-76
2023/10/13 03:23:58;;;;;;;;;;;19.10;69.30;;;;;;5060657;28;19932;-76
2023/10/13 03:26:24;;;;;;;;;;;19.10;69.40;;;;;;5065988;28;19928;-75
2023/10/13 03:28:53;;;;;;;;;;;19.10;69.70;;;;;;5062015;28;20440;-76
2023/10/13 03:31:19;;;;;;;;;;;19.10;69.80;;;;;;5059673;28;19935;-76
2023/10/13 03:33:46;;;;;;;;;;;19.10;70.10;;;;;;5060512;28;19928;-76
2023/10/13 03:36:35;;;;;;;;;;;19.10;70.20;;;;;;5064824;28;19933;-76
2023/10/13 03:39:07;;;;;;;;;;;19.10;70.40;;;;;;5063337;28;19936;-76
2023/10/13 03:41:37;;;;;;;;;;;19.10;70.30;;;;;;5063505;28;19940;-77
2023/10/13 03:44:12;;;;;;;;;;;19.10;70.40;;;;;;5060931;28;19929;-77
2023/10/13 03:46:41;;;;;;;;;;;19.10;70.50;;;;;;5060008;28;19928;-77
2023/10/13 03:49:12;;;;;;;;;;;19.10;70.70;;;;;;5061619;28;20402;-78
2023/10/13 03:51:39;;;;;;;;;;;19.00;70.70;;;;;;5059118;28;19928;-76
2023/10/13 03:54:08;;;;;;;;;;;19.00;70.90;;;;;;5061044;28;19973;-76
2023/10/13 03:56:39;;;;;;;;;;;19.00;71.70;;;;;;5062182;28;19932;-76
2023/10/13 03:59:09;;;;;;;;;;;19.00;71.10;;;;;;5065385;28;19985;-76
2023/10/13 04:01:45;;;;;;;;;;;19.00;71.20;;;;;;5061819;28;19994;-76
2023/10/13 04:04:12;;;;;;;;;;;19.00;71.50;;;;;;5061565;28;19936;-76
2023/10/13 04:06:51;;;;;;;;;;;19.00;71.50;;;;;;5061650;28;19928;-77
2023/10/13 04:10:00;;;;;;;;;;;19.00;71.60;;;;;;5063002;28;19928;-76
2023/10/13 04:15:21;;;;;;;;;;;18.90;71.70;;;;;;5056287;28;19935;-76
2023/10/13 04:17:48;;;;;;;;;;;18.90;71.90;;;;;;5061414;28;20077;-76
2023/10/13 04:20:27;;;;;;;;;;;18.90;72.00;;;;;;5062570;28;19924;-76
2023/10/13 04:25:52;;;;;;;;;;;18.90;72.10;;;;;;5060649;28;20348;-77
2023/10/13 04:28:34;;;;;;;;;;;18.80;72.10;;;;;;5064345;28;19965;-76
2023/10/13 04:31:11;;;;;;;;;;;18.80;72.20;;;;;;5063299;28;19959;-75
2023/10/13 04:33:51;;;;;;;;;;;18.80;72.40;;;;;;5066928;28;19928;-76
2023/10/13 04:36:21;;;;;;;;;;;18.80;72.60;;;;;;5064921;28;19924;-75
2023/10/13 04:38:55;;;;;;;;;;;18.80;72.80;;;;;;5062983;28;19928;-75
2023/10/13 04:41:24;;;;;;;;;;;18.80;73.10;;;;;;5063416;28;20459;-78
2023/10/13 04:43:55;;;;;;;;;;;18.70;73.00;;;;;;5063620;28;19940;-76
2023/10/13 04:46:54;;;;;;;;;;;18.70;73.10;;;;;;5065110;28;19924;-76
2023/10/13 04:49:28;;;;;;;;;;;18.70;73.10;;;;;;5056667;28;20415;-75
2023/10/13 04:52:00;;;;;;;;;;;18.70;73.00;;;;;;5062945;28;19986;-75
2023/10/13 04:54:33;;;;;;;;;;;18.70;73.10;;;;;;5062538;28;19928;-75
2023/10/13 05:05:45;;;;;;;;;;;18.50;73.70;;;;;;5063019;28;19931;-78
2023/10/13 05:49:52;;;;;;;;;;;18.10;75.30;;;;;;5065479;28;19939;-77
2023/10/13 06:31:02;;;;;;;;;;;17.60;77.60;;;;;;5064854;28;19931;-77
2023/10/13 06:33:29;;;;;;;;;;;17.60;77.60;;;;;;5071279;28;20302;-78
2023/10/13 06:36:01;;;;;;;;;;;17.60;77.70;;;;;;5066342;28;19941;-78
2023/10/13 06:38:35;;;;;;;;;;;17.60;77.70;;;;;;5062496;28;19933;-76
2023/10/13 06:41:05;;;;;;;;;;;17.70;77.70;;;;;;5063845;28;20634;-77
2023/10/13 06:43:32;;;;;;;;;;;17.60;77.70;;;;;;5067165;28;20019;-78
2023/10/13 06:46:01;;;;;;;;;;;17.70;77.80;;;;;;5061387;28;19924;-78
2023/10/13 06:48:32;;;;;;;;;;;17.70;77.70;;;;;;5065944;28;19925;-77
2023/10/13 06:51:06;;;;;;;;;;;17.70;77.70;;;;;;5058944;28;20355;-72
2023/10/13 06:53:37;;;;;;;;;;;17.70;77.60;;;;;;5058954;28;20648;-73
2023/10/13 06:56:06;;;;;;;;;;;17.70;77.60;;;;;;5058982;28;19932;-75
2023/10/13 06:58:33;;;;;;;;;;;17.70;77.60;;;;;;5061234;28;20384;-75
2023/10/13 07:01:00;;;;;;;;;;;17.80;77.60;;;;;;5065823;28;19932;-76
2023/10/13 07:03:28;;;;;;;;;;;17.70;77.50;;;;;;5064931;28;19956;-76
2023/10/13 07:05:58;;;;;;;;;;;17.70;77.50;;;;;;5064437;28;19928;-75
2023/10/13 07:08:26;;;;;;;;;;;17.70;77.40;;;;;;5062735;28;20357;-76
2023/10/13 07:11:02;;;;;;;;;;;17.70;77.40;;;;;;5060456;28;20541;-75
2023/10/13 07:13:29;;;;;;;;;;;17.70;77.40;;;;;;5062095;28;20050;-76
2023/10/13 07:16:00;;;;;;;;;;;17.80;77.50;;;;;;5062384;28;19928;-75
2023/10/13 07:18:32;;;;;;;;;;;17.80;77.50;;;;;;5067150;28;19928;-75
2023/10/13 07:21:09;;;;;;;;;;;17.80;77.50;;;;;;5060448;28;19956;-76
2023/10/13 07:23:37;;;;;;;;;;;17.80;77.60;;;;;;5061335;28;19974;-75
2023/10/13 07:26:05;;;;;;;;;;;17.80;77.60;;;;;;5059847;28;19939;-76
2023/10/13 07:28:35;;;;;;;;;;;17.80;77.60;;;;;;5064249;28;19955;-77
2023/10/13 07:31:12;;;;;;;;;;;17.80;77.70;;;;;;5057813;28;19943;-76
2023/10/13 07:33:40;;;;;;;;;;;17.80;77.70;;;;;;5062910;28;19928;-77
2023/10/13 07:36:15;;;;;;;;;;;17.80;77.70;;;;;;5063222;28;19989;-78
2023/10/13 07:38:48;;;;;;;;;;;17.80;77.70;;;;;;5060249;28;19932;-76
2023/10/13 07:41:15;;;;;;;;;;;17.80;77.90;;;;;;5060056;28;19963;-77
2023/10/13 07:43:44;;;;;;;;;;;17.80;77.90;;;;;;5063645;28;19932;-73
2023/10/13 07:46:12;;;;;;;;;;;17.80;77.90;;;;;;5056481;28;19935;-75
2023/10/13 07:48:39;;;;;;;;;;;17.80;77.90;;;;;;5060292;28;20462;-74
2023/10/13 07:51:10;;;;;;;;;;;17.70;77.90;;;;;;5060452;28;19933;-75
2023/10/13 07:53:40;;;;;;;;;;;17.80;78.10;;;;;;5060366;28;19961;-74
2023/10/13 07:56:08;;;;;;;;;;;17.70;78.10;;;;;;5056887;28;19933;-75
2023/10/13 07:58:46;;;;;;;;;;;17.80;78.30;;;;;;5058196;28;19932;-75
2023/10/13 08:01:17;;;;;;;;;;;17.80;78.40;;;;;;5063960;28;19928;-73
2023/10/13 08:03:46;;;;;;;;;;;17.70;78.40;;;;;;5060242;28;20959;-76
2023/10/13 08:06:19;;;;;;;;;;;17.80;78.40;;;;;;5067191;28;19932;-77
2023/10/13 08:08:49;;;;;;;;;;;17.80;78.30;;;;;;5059257;28;19924;-76
2023/10/13 08:11:26;;;;;;;;;;;17.70;78.30;;;;;;5058264;28;19928;-78
2023/10/13 08:13:58;;;;;;;;;;;17.80;78.40;;;;;;5061375;28;19929;-76
2023/10/13 08:16:30;;;;;;;;;;;17.70;78.30;;;;;;5063249;28;20016;-76
2023/10/13 08:19:01;;;;;;;;;;;17.80;78.40;;;;;;5059323;28;20401;-75
2023/10/13 08:21:31;;;;;;;;;;;17.80;78.40;;;;;;5061147;28;19928;-75
2023/10/13 08:23:59;;;;;;;;;;;17.80;78.40;;;;;;5060971;28;19932;-75
2023/10/13 08:26:30;;;;;;;;;;;17.80;78.30;;;;;;5059034;28;19928;-78
2023/10/13 08:28:57;;;;;;;;;;;17.80;78.30;;;;;;5055991;28;19932;-76
2023/10/13 08:31:25;;;;;;;;;;;17.80;78.20;;;;;;5058732;28;20092;-75
2023/10/13 08:34:05;;;;;;;;;;;17.80;78.10;;;;;;5056994;28;20366;-74
2023/10/13 08:36:32;;;;;;;;;;;17.80;78.10;;;;;;5062001;28;19932;-74
2023/10/13 08:39:15;;;;;;;;;;;17.80;78.00;;;;;;5061126;28;20417;-73
2023/10/13 08:41:54;;;;;;;;;;;17.80;78.00;;;;;;5059543;28;20007;-74
2023/10/13 08:44:32;;;;;;;;;;;17.80;77.90;;;;;;5052845;28;20461;-74
2023/10/13 08:47:05;;;;;;;;;;;17.80;77.90;;;;;;5059384;28;19935;-76
2023/10/13 08:49:39;;;;;;;;;;;17.80;77.80;;;;;;5064603;28;19975;-74
2023/10/13 08:52:37;;;;;;;;;;;17.90;77.90;;;;;;5063388;28;19936;-74
2023/10/13 08:55:12;;;;;;;;;;;17.90;77.80;;;;;;5057589;28;19944;-74
2023/10/13 08:57:41;;;;;;;;;;;17.90;77.80;;;;;;5061628;28;20386;-74
2023/10/13 09:00:28;;;;;;;;;;;17.90;77.70;;;;;;5061948;28;19932;-76
2023/10/13 09:03:28;;;;;;;;;;;17.90;77.60;;;;;;5062216;28;19981;-73
2023/10/13 09:06:00;;;;;;;;;;;17.90;77.30;;;;;;5052984;28;19932;-80
2023/10/13 09:08:35;;;;;;;;;;;17.90;77.00;;;;;;5063290;28;19931;-77
2023/10/13 09:11:10;;;;;;;;;;;17.90;76.90;;;;;;5061229;28;19928;-79
2023/10/13 09:13:44;;;;;;;;;;;18.00;76.60;;;;;;5062834;28;22613;-78
2023/10/13 09:16:16;;;;;;;;;;;18.00;76.30;;;;;;5065270;28;19925;-76
2023/10/13 09:18:46;;;;;;;;;;;18.00;75.90;;;;;;5064425;28;19924;-80
2023/10/13 09:21:29;;;;;;;;;;;18.10;75.30;;;;;;5061415;28;19928;-79
2023/10/13 09:24:16;;;;;;;;;;;18.10;75.10;;;;;;5059703;28;20464;-79
2023/10/13 09:26:41;;;;;;;;;;;18.10;75.00;;;;;;5061867;28;19924;-78
2023/10/13 09:29:18;;;;;;;;;;;18.10;74.60;;;;;;5064435;28;19921;-76
2023/10/13 09:31:44;;;;;;;;;;;18.20;74.40;;;;;;5070446;28;19928;-77
2023/10/13 09:34:11;;;;;;;;;;;18.20;74.00;;;;;;5065942;28;19931;-78
2023/10/13 09:36:37;;;;;;;;;;;18.20;74.00;;;;;;5063307;28;19928;-77
2023/10/13 09:39:12;;;;;;;;;;;18.30;73.90;;;;;;5063541;28;19933;-80
2023/10/13 09:41:39;;;;;;;;;;;18.40;73.80;;;;;;5060763;28;19963;-79
2023/10/13 09:44:08;;;;;;;;;;;18.40;73.60;;;;;;5066307;28;19924;-78
2023/10/13 09:46:41;;;;;;;;;;;18.40;73.50;;;;;;5061251;28;19947;-79
2023/10/13 09:49:14;;;;;;;;;;;18.50;73.40;;;;;;5065271;28;20033;-81
2023/10/13 09:51:44;;;;;;;;;;;18.50;73.40;;;;;;5065630;28;20050;-78
2023/10/13 09:54:16;;;;;;;;;;;18.60;73.20;;;;;;5063182;28;19930;-79
2023/10/13 09:56:52;;;;;;;;;;;18.60;73.00;;;;;;5062804;28;19959;-77
2023/10/13 09:59:19;;;;;;;;;;;18.70;73.00;;;;;;5058021;28;19928;-80
2023/10/13 10:01:51;;;;;;;;;;;18.70;72.70;;;;;;5060688;28;19935;-79
2023/10/13 10:04:17;;;;;;;;;;;18.80;72.60;;;;;;5057752;28;19932;-77
2023/10/13 10:06:53;;;;;;;;;;;18.90;72.40;;;;;;5060781;28;20403;-77
2023/10/13 10:09:21;;;;;;;;;;;19.00;71.80;;;;;;5062279;28;20792;-78
2023/10/13 10:12:07;;;;;;;;;;;19.10;71.60;;;;;;5061945;28;19944;-77
2023/10/13 10:14:41;;;;;;;;;;;19.20;71.60;;;;;;5062313;28;19928;-79
2023/10/13 10:17:09;;;;;;;;;;;19.20;70.90;;;;;;5063987;27;19924;-76
2023/10/13 10:19:46;;;;;;;;;;;19.30;70.60;;;;;;5064992;28;19929;-79
2023/10/13 10:22:17;;;;;;;;;;;19.40;70.20;;;;;;5066803;28;20313;-78
2023/10/13 10:24:44;;;;;;;;;;;19.50;69.90;;;;;;5062152;28;19990;-79
2023/10/13 10:27:14;;;;;;;;;;;19.60;69.10;;;;;;5066995;28;19940;-79
2023/10/13 10:29:41;;;;;;;;;;;19.80;68.80;;;;;;5064661;28;20071;-78
2023/10/13 10:32:14;;;;;;;;;;;19.90;68.30;;;;;;5062949;28;19967;-78
2023/10/13 10:34:41;;;;;;;;;;;19.90;67.50;;;;;;5065252;28;20420;-78
2023/10/13 10:37:09;;;;;;;;;;;20.00;67.30;;;;;;5062698;28;20283;-77
2023/10/13 10:39:45;;;;;;;;;;;20.00;66.90;;;;;;5065239;28;20019;-79
2023/10/13 10:42:23;;;;;;;;;;;20.20;66.30;;;;;;5063969;28;19932;-77
2023/10/13 10:44:55;;;;;;;;;;;20.20;65.80;;;;;;5060603;28;20334;-81
2023/10/13 10:47:31;;;;;;;;;;;20.30;65.40;;;;;;5061133;28;20404;-79
2023/10/13 10:49:58;;;;;;;;;;;20.40;65.40;;;;;;5062692;28;19928;-77
2023/10/13 10:52:26;;;;;;;;;;;20.50;65.30;;;;;;5062531;28;19975;-78
2023/10/13 10:54:59;;;;;;;;;;;20.50;64.80;;;;;;5062541;28;20019;-78
2023/10/13 10:57:28;;;;;;;;;;;20.60;64.30;;;;;;5063263;28;19955;-79
2023/10/13 11:00:10;;;;;;;;;;;20.70;62.60;;;;;;5063049;28;19933;-79
2023/10/13 11:02:38;;;;;;;;;;;20.80;63.70;;;;;;5063935;28;19932;-79
2023/10/13 11:05:06;;;;;;;;;;;20.90;64.20;;;;;;5061206;28;20387;-80
2023/10/13 11:07:34;;;;;;;;;;;20.90;64.20;;;;;;5064304;28;19934;-79
2023/10/13 11:10:11;;;;;;;;;;;21.00;64.40;;;;;;5059592;28;19938;-78
2023/10/13 11:12:39;;;;;;;;;;;21.10;62.60;;;;;;5062946;28;19975;-79
2023/10/13 11:15:13;;;;;;;;;;;21.20;61.60;;;;;;5059260;28;19933;-78
2023/10/13 11:17:50;;;;;;;;;;;21.30;61.10;;;;;;5055728;28;19928;-80
2023/10/13 11:20:25;;;;;;;;;;;21.40;61.60;;;;;;5063275;28;19932;-79
2023/10/13 11:22:52;;;;;;;;;;;21.40;60.50;;;;;;5062335;28;19929;-79
2023/10/13 11:25:30;;;;;;;;;;;21.50;60.90;;;;;;5063379;28;19971;-80
2023/10/13 11:27:59;;;;;;;;;;;21.50;60.10;;;;;;5061390;28;19935;-79
2023/10/13 11:30:29;;;;;;;;;;;21.60;60.50;;;;;;5062393;28;19940;-78
2023/10/13 11:33:05;;;;;;;;;;;21.70;61.00;;;;;;5061614;28;20734;-78
2023/10/13 11:38:13;;;;;;;;;;;21.80;60.00;;;;;;5063123;28;20501;-78
2023/10/13 11:41:07;;;;;;;;;;;21.90;58.50;;;;;;5065292;28;19929;-77
2023/10/13 11:43:40;;;;;;;;;;;22.00;59.10;;;;;;5065266;28;19929;-76
2023/10/13 11:46:15;;;;;;;;;;;22.10;58.40;;;;;;5057857;28;20330;-77
2023/10/13 11:48:42;;;;;;;;;;;22.10;58.60;;;;;;5063269;28;19967;-77
2023/10/13 11:51:16;;;;;;;;;;;22.20;57.70;;;;;;5062891;28;19928;-77
2023/10/13 11:53:44;;;;;;;;;;;22.30;57.60;;;;;;5062004;28;19932;-77
2023/10/13 11:56:10;;;;;;;;;;;22.30;57.80;;;;;;5063919;28;19932;-77
2023/10/13 11:58:37;;;;;;;;;;;22.40;57.60;;;;;;5064380;28;19935;-77
2023/10/13 12:01:20;;;;;;;;;;;22.50;57.50;;;;;;5060909;28;19936;-77
2023/10/13 12:06:42;;;;;;;;;;;22.60;57.80;;;;;;5059851;28;19935;-77
2023/10/13 12:09:19;;;;;;;;;;;22.60;56.50;;;;;;5064112;28;20010;-78
2023/10/13 12:11:46;;;;;;;;;;;22.70;57.20;;;;;;5063852;28;19932;-77
2023/10/13 12:14:16;;;;;;;;;;;22.80;56.50;;;;;;5062054;28;19928;-77
2023/10/13 12:16:48;;;;;;;;;;;22.80;57.00;;;;;;5064427;28;20298;-77
2023/10/13 12:19:16;;;;;;;;;;;22.90;57.10;;;;;;5061821;28;19951;-77
2023/10/13 12:21:44;;;;;;;;;;;23.00;56.10;;;;;;5066419;28;19928;-77
2023/10/13 12:24:22;;;;;;;;;;;23.10;56.30;;;;;;5062856;28;19989;-76
2023/10/13 12:26:48;;;;;;;;;;;23.10;55.20;;;;;;5064650;28;19967;-77
2023/10/13 12:29:22;;;;;;;;;;;23.20;55.40;;;;;;5063211;28;19928;-78
2023/10/13 12:32:01;;;;;;;;;;;23.30;54.20;;;;;;5065993;28;19928;-77
2023/10/13 12:34:56;;;;;;;;;;;23.30;55.00;;;;;;5057352;28;19931;-76
2023/10/13 12:37:37;;;;;;;;;;;23.40;54.30;;;;;;5064045;28;19932;-77
2023/10/13 12:51:19;;;;;;;;;;;23.50;55.00;;;;;;5065320;28;19927;-77
2023/10/13 12:53:46;;;;;;;;;;;23.50;55.10;;;;;;5059304;28;20457;-77
2023/10/13 12:56:13;;;;;;;;;;;23.50;55.40;;;;;;5064145;28;19931;-77
2023/10/13 12:58:39;;;;;;;;;;;23.50;55.10;;;;;;5063155;28;19932;-77
2023/10/13 13:01:07;;;;;;;;;;;23.50;54.90;;;;;;5056796;28;19932;-77
2023/10/13 13:03:34;;;;;;;;;;;23.50;54.50;;;;;;5062953;28;19936;-76
2023/10/13 13:06:07;;;;;;;;;;;23.50;54.80;;;;;;5062080;28;19932;-77
2023/10/13 13:08:35;;;;;;;;;;;23.50;55.30;;;;;;5068814;28;19986;-76
2023/10/13 13:11:02;;;;;;;;;;;23.50;55.40;;;;;;5061836;28;19997;-78
2023/10/13 13:13:29;;;;;;;;;;;23.50;54.60;;;;;;5066033;28;19966;-77
2023/10/13 13:15:56;;;;;;;;;;;23.50;55.00;;;;;;5058820;28;19999;-77
2023/10/13 13:18:23;;;;;;;;;;;23.60;55.00;;;;;;5067162;28;19999;-77
2023/10/13 13:20:54;;;;;;;;;;;23.60;55.30;;;;;;5066811;28;19975;-76
2023/10/13 13:23:21;;;;;;;;;;;23.60;54.90;;;;;;5067065;28;19979;-77
2023/10/13 13:25:49;;;;;;;;;;;23.60;53.70;;;;;;5064125;28;19975;-78
2023/10/13 13:28:16;;;;;;;;;;;23.70;54.10;;;;;;5057246;28;19987;-77
2023/10/13 13:30:42;;;;;;;;;;;23.70;54.10;;;;;;5057858;28;19991;-77
2023/10/13 13:33:11;;;;;;;;;;;23.80;53.40;;;;;;5059968;28;19980;-78
2023/10/13 13:35:38;;;;;;;;;;;23.80;52.80;;;;;;5064825;28;20037;-78
2023/10/13 13:38:09;;;;;;;;;;;23.90;53.50;;;;;;5062511;28;20014;-77
2023/10/13 13:40:37;;;;;;;;;;;23.90;53.40;;;;;;5058934;28;19976;-77
2023/10/13 13:43:06;;;;;;;;;;;24.00;53.20;;;;;;5060745;28;19984;-76
2023/10/13 13:45:34;;;;;;;;;;;24.10;53.90;;;;;;5061638;28;20130;-76
2023/10/13 13:48:07;;;;;;;;;;;24.10;53.50;;;;;;5061500;28;20622;-79
2023/10/13 13:50:39;;;;;;;;;;;24.20;52.20;;;;;;5055861;28;19979;-80
2023/10/13 13:53:09;;;;;;;;;;;24.20;51.90;;;;;;5064901;28;20189;-76
2023/10/13 13:55:35;;;;;;;;;;;24.30;52.20;;;;;;5063170;28;20002;-81
2023/10/13 13:58:07;;;;;;;;;;;24.30;51.30;;;;;;5063770;28;20091;-80
2023/10/13 14:00:40;;;;;;;;;;;24.40;52.30;;;;;;5060166;28;19995;-77
2023/10/13 14:03:12;;;;;;;;;;;24.40;51.60;;;;;;5062690;28;19976;-80
2023/10/13 14:05:41;;;;;;;;;;;24.50;52.50;;;;;;5061889;28;19991;-77
2023/10/13 14:08:11;;;;;;;;;;;24.50;52.20;;;;;;5067107;28;19975;-78
2023/10/13 14:11:13;;;;;;;;;;;24.60;50.90;;;;;;5061268;28;19979;-78
2023/10/13 14:13:48;;;;;;;;;;;24.60;51.40;;;;;;5058780;28;20827;-78
2023/10/13 14:16:16;;;;;;;;;;;24.70;50.40;;;;;;5057874;28;20003;-77
2023/10/13 14:18:42;;;;;;;;;;;25.10;46.00;;;;;;5065115;28;20348;-79
2023/10/13 14:21:09;;;;;;;;;;;25.20;46.70;;;;;;5063662;28;19976;-76
2023/10/13 14:23:36;;;;;;;;;;;25.20;47.00;;;;;;5063075;28;19995;-79
2023/10/13 14:26:02;;;;;;;;;;;25.20;47.60;;;;;;5065040;28;20069;-78
2023/10/13 14:28:34;;;;;;;;;;;25.10;47.60;;;;;;5063090;28;20597;-78
2023/10/13 14:31:09;;;;;;;;;;;25.10;48.40;;;;;;5061623;28;20025;-81
2023/10/13 14:33:39;;;;;;;;;;;25.00;48.00;;;;;;5062922;28;19991;-77
2023/10/13 14:36:05;;;;;;;;;;;25.00;48.40;;;;;;5062211;28;20691;-77
2023/10/13 14:38:32;;;;;;;;;;;25.00;48.10;;;;;;5061178;28;20018;-76
2023/10/13 14:40:58;;;;;;;;;;;25.00;48.60;;;;;;5059857;28;19983;-77
2023/10/13 14:43:27;;;;;;;;;;;24.90;49.40;;;;;;5062608;28;19982;-78
2023/10/13 14:45:53;;;;;;;;;;;24.90;49.30;;;;;;5060151;28;20074;-78
2023/10/13 14:48:20;;;;;;;;;;;24.90;49.50;;;;;;5063977;28;19975;-79
2023/10/13 14:50:48;;;;;;;;;;;24.90;49.50;;;;;;5068461;28;20586;-79
2023/10/13 14:53:19;;;;;;;;;;;24.90;48.80;;;;;;5070055;28;19983;-76
2023/10/13 14:55:46;;;;;;;;;;;24.80;48.60;;;;;;5069968;28;20330;-78
2023/10/13 14:58:16;;;;;;;;;;;24.70;49.50;;;;;;5072916;28;19995;-80
2023/10/13 15:00:45;;;;;;;;;;;24.70;49.80;;;;;;5069262;28;20014;-81
2023/10/13 15:03:11;;;;;;;;;;;24.70;50.10;;;;;;5068806;28;20041;-77
2023/10/13 15:05:38;;;;;;;;;;;24.70;50.30;;;;;;5067602;28;20003;-78
2023/10/13 15:08:07;;;;;;;;;;;24.70;50.10;;;;;;5062352;28;20445;-79
2023/10/13 15:10:36;;;;;;;;;;;24.70;50.30;;;;;;5069367;28;19979;-78
2023/10/13 15:13:02;;;;;;;;;;;24.70;50.60;;;;;;5069885;28;20002;-78
2023/10/13 15:15:32;;;;;;;;;;;24.60;50.70;;;;;;5066297;28;20038;-78
2023/10/13 15:17:59;;;;;;;;;;;24.60;50.50;;;;;;5067847;28;20000;-80
2023/10/13 15:20:25;;;;;;;;;;;24.50;51.00;;;;;;5067865;28;20037;-78
2023/10/13 15:22:59;;;;;;;;;;;24.50;51.30;;;;;;5066649;28;19986;-78
2023/10/13 15:25:38;;;;;;;;;;;24.50;51.00;;;;;;5067906;28;20060;-78
2023/10/13 15:28:09;;;;;;;;;;;24.50;51.60;;;;;;5067959;28;20071;-80
2023/10/13 15:30:44;;;;;;;;;;;24.50;51.40;;;;;;5066831;28;20041;-78
2023/10/13 15:33:11;;;;;;;;;;;24.50;51.70;;;;;;5068149;28;20057;-78
2023/10/13 15:35:39;;;;;;;;;;;24.40;51.70;;;;;;5066521;28;19995;-78
2023/10/13 15:38:06;;;;;;;;;;;24.40;52.10;;;;;;5060913;28;20007;-79
2023/10/13 15:40:34;;;;;;;;;;;24.40;52.30;;;;;;5068034;28;20063;-78
2023/10/13 15:43:00;;;;;;;;;;;24.30;52.10;;;;;;5065228;28;19983;-81
2023/10/13 15:45:38;;;;;;;;;;;24.30;52.50;;;;;;5065794;28;19988;-81
2023/10/13 15:48:06;;;;;;;;;;;24.30;52.80;;;;;;5066971;28;20714;-80
2023/10/13 15:50:39;;;;;;;;;;;24.30;53.10;;;;;;5065174;28;20015;-81
2023/10/13 15:53:06;;;;;;;;;;;24.30;52.80;;;;;;5065542;28;19979;-81
2023/10/13 15:55:36;;;;;;;;;;;24.30;52.90;;;;;;5063048;28;20031;-78
2023/10/13 15:58:02;;;;;;;;;;;24.30;53.10;;;;;;5061597;28;19995;-83
2023/10/13 16:00:29;;;;;;;;;;;24.20;53.10;;;;;;5063591;28;20805;-78
2023/10/13 16:02:57;;;;;;;;;;;24.20;53.20;;;;;;5060705;28;19986;-79
2023/10/13 16:05:24;;;;;;;;;;;24.20;52.40;;;;;;5063471;28;20082;-78
2023/10/13 16:07:52;;;;;;;;;;;24.10;52.80;;;;;;5062256;28;19980;-79
2023/10/13 16:10:18;;;;;;;;;;;24.10;52.80;;;;;;5061136;28;19984;-81
2023/10/13 16:12:46;;;;;;;;;;;24.10;52.90;;;;;;5061684;28;19979;-79
2023/10/13 16:15:14;;;;;;;;;;;24.10;53.30;;;;;;5059645;28;19999;-83
2023/10/13 16:17:41;;;;;;;;;;;24.10;53.20;;;;;;5062071;28;20044;-80
2023/10/13 16:20:15;;;;;;;;;;;24.10;53.50;;;;;;5064521;28;20586;-79
2023/10/13 16:22:44;;;;;;;;;;;24.10;53.80;;;;;;5063292;28;19971;-84
2023/10/13 16:25:11;;;;;;;;;;;24.00;53.90;;;;;;5060322;28;20034;-80
2023/10/13 16:27:39;;;;;;;;;;;24.00;54.10;;;;;;5061321;28;20011;-81
2023/10/13 16:30:09;;;;;;;;;;;23.90;52.70;;;;;;5061794;28;19975;-78